Dauntless Aviation
Airports Europe Ireland
EINN
SNN

Shannon Airport

Shannon, IRELAND

Airport Info
Suggest Updated Information for this Airport

Location

Latitude / Longitude: 52°42'7"N / 8°55'29"W
  52°42.12'N / 8°55.488'W
  52.7020 / -8.9248

Nearby radio navigation aids

ENS ENNIS NDB. 186.3° 12.2nm from ENS to field.
FOY FOYNES NDB. 57.3° 12.8nm from FOY to field.
SHA SHANNON VOR/DME. 238.5° 1.8nm from SHA to field.

Runway Information

Runway 06 /24

Dimensions: 10496 x 148 ft.
Surface: ASP
 
Runway 06
Runway 24
Latitude: 52.693172 52.710008
Longitude: -8.943519 -8.907742
Elevation: 46 ft. 46 ft.
Runway true heading: 48.7 228.7
 

Runway 13 /31

Dimensions: 5643 x 148 ft.
Surface: ASP
 
Runway 13
Runway 31
Latitude: 52.702003 52.693119
Longitude: -8.925825 -8.905003
Elevation: 11 ft. 11 ft.
Runway true heading: 121.7 301.7
 

Instrument Procedures

  Aircraft Parking/Docking Chart
  Aerodrome Chart

STARs (Standard Terminal Arrivals)

  RNAV STAR (STAR) - Rwy 06
  STAR RNAV Rwy 24

IAPs (Instrument Approach Procedures)

  Aerodrome Information (Textual)
  ATC Surveillance Minimum Altitude Chart
  Precision Approach Terrain Chart - Rwy 24
  Aerodrome Obstacle Chart Rwy 06/24
  ILS or LOC Rwy 06 Aircraft CAT A/B/C/D
  VOR Rwy 06 Aircraft CAT A/B/C/D
  ILS CAT I and II or LOC Rwy 24 Aircraft CAT A/B/C/D
  VOR Rwy 24 Aircraft CAT A/B/C/D
  Visual Approach Chart

Departure Procedures

  RNAV SID Rwy 06
  RNAV SID Rwy 24
Satellite photo at:
Airport distance calculator
From:
Weather Reports

METAR

EINN

EINN 181730Z 27013KT 9999 FEW026 BKN038 17/10 Q1011 NOSIG
EIKY
37.9nm S
EIKY 181730Z 26012KT 250V310 9999 SCT036 BKN042 17/12 Q1011

TAF

EINN
TAF EINN 181100Z 1812/1912 24015KT 4000 -RA BKN008 BECMG 1812/1814 27014KT 9999 NSW FEW013 BKN030 PROB30 TEMPO 1812/1814 2000 RADZ BKN004 PROB30 TEMPO 1814/1815 BKN013 BECMG 1819/1821 24012KT TEMPO 1823/1902 27012KT PROB30 TEMPO 1904/1906 4000 SHRA BECMG 1908/1910 25016G27KT
EIKY
37.9nm S
TAF EIKY 181400Z 1815/1824 26014KT 9999 FEW015 BKN030
Safelog

 

Dauntless Aviation

© 2007-2022 Dauntless Aviation, all rights reserved
Information provided via PilotNav comes from a variety of official and unofficial data sources. As errors are possible, do not use PilotNav for primary flight planning purposes. Verify any information that you receive via PilotNav with current and canonical charts and other official documents. The material in this database is subject to database copyrights held by Dauntless Aviation and may not be copied without the express permission of Dauntless Aviation - licenses for use of part of all of this data are available for purchase; enquire via the Dauntless Aviation helpdesk. A number of mechanisms and markers exist in the database to protect against and identify infringement / copyright. Automated queries against this website are strictly prohibited, and all activity is logged and analyzed.